sensor_id;sensor_type;location;lat;lon;timestamp;temperature;humidity
75164;HTU21D;63746;45.402;37.922;2023-05-07T00:00:13;16.88;64.31
75164;HTU21D;63746;45.402;37.922;2023-05-07T00:02:41;16.85;64.31
75164;HTU21D;63746;45.402;37.922;2023-05-07T00:05:07;16.80;64.31
75164;HTU21D;63746;45.402;37.922;2023-05-07T00:07:33;16.77;64.37
75164;HTU21D;63746;45.402;37.922;2023-05-07T00:10:00;16.73;64.40
75164;HTU21D;63746;45.402;37.922;2023-05-07T00:12:25;16.71;64.43
75164;HTU21D;63746;45.402;37.922;2023-05-07T00:14:51;16.67;64.44
75164;HTU21D;63746;45.402;37.922;2023-05-07T00:17:17;16.65;64.45
75164;HTU21D;63746;45.402;37.922;2023-05-07T00:19:43;16.61;64.43
75164;HTU21D;63746;45.402;37.922;2023-05-07T00:22:09;16.58;64.48
75164;HTU21D;63746;45.402;37.922;2023-05-07T00:24:35;16.57;64.51
75164;HTU21D;63746;45.402;37.922;2023-05-07T00:27:01;16.56;64.51
75164;HTU21D;63746;45.402;37.922;2023-05-07T00:29:27;16.54;64.49
75164;HTU21D;63746;45.402;37.922;2023-05-07T00:31:53;16.51;64.53
75164;HTU21D;63746;45.402;37.922;2023-05-07T00:34:20;16.50;64.50
75164;HTU21D;63746;45.402;37.922;2023-05-07T00:36:46;16.49;64.47
75164;HTU21D;63746;45.402;37.922;2023-05-07T00:39:12;16.45;64.46
75164;HTU21D;63746;45.402;37.922;2023-05-07T00:41:38;16.43;64.51
75164;HTU21D;63746;45.402;37.922;2023-05-07T00:44:04;16.40;64.50
75164;HTU21D;63746;45.402;37.922;2023-05-07T00:46:31;16.35;64.53
75164;HTU21D;63746;45.402;37.922;2023-05-07T00:48:58;16.33;64.54
75164;HTU21D;63746;45.402;37.922;2023-05-07T00:51:25;16.30;64.58
75164;HTU21D;63746;45.402;37.922;2023-05-07T00:53:53;16.29;64.58
75164;HTU21D;63746;45.402;37.922;2023-05-07T00:56:21;16.28;64.58
75164;HTU21D;63746;45.402;37.922;2023-05-07T00:58:48;16.22;64.58
75164;HTU21D;63746;45.402;37.922;2023-05-07T01:01:14;16.22;64.62
75164;HTU21D;63746;45.402;37.922;2023-05-07T01:03:42;16.19;64.58
75164;HTU21D;63746;45.402;37.922;2023-05-07T01:06:09;16.17;64.59
75164;HTU21D;63746;45.402;37.922;2023-05-07T01:08:39;16.14;64.63
75164;HTU21D;63746;45.402;37.922;2023-05-07T01:11:06;16.12;64.63
75164;HTU21D;63746;45.402;37.922;2023-05-07T01:13:34;16.11;64.66
75164;HTU21D;63746;45.402;37.922;2023-05-07T01:16:02;16.10;64.66
75164;HTU21D;63746;45.402;37.922;2023-05-07T01:18:28;16.07;64.63
75164;HTU21D;63746;45.402;37.922;2023-05-07T01:20:59;16.05;64.62
75164;HTU21D;63746;45.402;37.922;2023-05-07T01:23:27;16.04;64.64
75164;HTU21D;63746;45.402;37.922;2023-05-07T01:25:54;16.03;64.67
75164;HTU21D;63746;45.402;37.922;2023-05-07T01:28:22;16.01;64.65
75164;HTU21D;63746;45.402;37.922;2023-05-07T01:30:56;16.00;64.67
75164;HTU21D;63746;45.402;37.922;2023-05-07T01:33:26;15.99;64.66
75164;HTU21D;63746;45.402;37.922;2023-05-07T01:35:53;15.96;64.66
75164;HTU21D;63746;45.402;37.922;2023-05-07T01:38:21;15.96;64.65
75164;HTU21D;63746;45.402;37.922;2023-05-07T01:40:47;15.91;64.61
75164;HTU21D;63746;45.402;37.922;2023-05-07T01:43:13;15.88;64.60
75164;HTU21D;63746;45.402;37.922;2023-05-07T01:45:40;15.84;64.67
75164;HTU21D;63746;45.402;37.922;2023-05-07T01:48:07;15.83;64.69
75164;HTU21D;63746;45.402;37.922;2023-05-07T01:50:34;15.82;64.72
75164;HTU21D;63746;45.402;37.922;2023-05-07T01:53:01;15.81;64.74
75164;HTU21D;63746;45.402;37.922;2023-05-07T01:55:28;15.80;64.72
75164;HTU21D;63746;45.402;37.922;2023-05-07T01:57:54;15.77;64.70
75164;HTU21D;63746;45.402;37.922;2023-05-07T02:00:20;15.76;64.78
75164;HTU21D;63746;45.402;37.922;2023-05-07T02:02:47;15.76;64.76
75164;HTU21D;63746;45.402;37.922;2023-05-07T02:05:27;15.77;64.75
75164;HTU21D;63746;45.402;37.922;2023-05-07T02:08:09;15.77;64.71
75164;HTU21D;63746;45.402;37.922;2023-05-07T02:10:35;15.75;64.73
75164;HTU21D;63746;45.402;37.922;2023-05-07T02:13:01;15.76;64.68
75164;HTU21D;63746;45.402;37.922;2023-05-07T02:15:27;15.72;64.65
75164;HTU21D;63746;45.402;37.922;2023-05-07T02:18:07;15.71;64.68
75164;HTU21D;63746;45.402;37.922;2023-05-07T02:20:33;15.69;64.68
75164;HTU21D;63746;45.402;37.922;2023-05-07T02:22:59;15.68;64.69
75164;HTU21D;63746;45.402;37.922;2023-05-07T02:25:28;15.65;64.67
75164;HTU21D;63746;45.402;37.922;2023-05-07T02:27:54;15.60;64.68
75164;HTU21D;63746;45.402;37.922;2023-05-07T02:30:25;15.58;64.72
75164;HTU21D;63746;45.402;37.922;2023-05-07T02:32:53;15.55;64.66
75164;HTU21D;63746;45.402;37.922;2023-05-07T02:35:19;15.52;64.82
75164;HTU21D;63746;45.402;37.922;2023-05-07T02:37:45;15.49;64.81
75164;HTU21D;63746;45.402;37.922;2023-05-07T02:40:12;15.46;64.82
75164;HTU21D;63746;45.402;37.922;2023-05-07T02:42:38;15.44;64.83
75164;HTU21D;63746;45.402;37.922;2023-05-07T02:45:05;15.42;64.87
75164;HTU21D;63746;45.402;37.922;2023-05-07T02:47:31;15.41;64.85
75164;HTU21D;63746;45.402;37.922;2023-05-07T02:49:59;15.42;64.88
75164;HTU21D;63746;45.402;37.922;2023-05-07T02:52:25;15.41;64.85
75164;HTU21D;63746;45.402;37.922;2023-05-07T02:54:52;15.38;64.82
75164;HTU21D;63746;45.402;37.922;2023-05-07T02:57:17;15.37;64.85
75164;HTU21D;63746;45.402;37.922;2023-05-07T02:59:43;15.33;64.89
75164;HTU21D;63746;45.402;37.922;2023-05-07T03:02:11;15.34;64.86
75164;HTU21D;63746;45.402;37.922;2023-05-07T03:04:37;15.31;64.85
75164;HTU21D;63746;45.402;37.922;2023-05-07T03:07:03;15.30;64.89
75164;HTU21D;63746;45.402;37.922;2023-05-07T03:09:29;15.32;64.98
75164;HTU21D;63746;45.402;37.922;2023-05-07T03:11:56;15.31;64.88
75164;HTU21D;63746;45.402;37.922;2023-05-07T03:14:22;15.31;64.88
75164;HTU21D;63746;45.402;37.922;2023-05-07T03:16:49;15.31;64.84
75164;HTU21D;63746;45.402;37.922;2023-05-07T03:19:15;15.29;64.84
75164;HTU21D;63746;45.402;37.922;2023-05-07T03:21:41;15.26;64.81
75164;HTU21D;63746;45.402;37.922;2023-05-07T03:24:07;15.24;64.83
75164;HTU21D;63746;45.402;37.922;2023-05-07T03:26:33;15.19;64.85
75164;HTU21D;63746;45.402;37.922;2023-05-07T03:28:59;15.18;64.87
75164;HTU21D;63746;45.402;37.922;2023-05-07T03:31:25;15.16;64.92
75164;HTU21D;63746;45.402;37.922;2023-05-07T03:33:53;15.12;64.82
75164;HTU21D;63746;45.402;37.922;2023-05-07T03:36:20;15.09;64.84
75164;HTU21D;63746;45.402;37.922;2023-05-07T03:38:47;15.02;64.84
75164;HTU21D;63746;45.402;37.922;2023-05-07T03:41:16;14.95;64.84
75164;HTU21D;63746;45.402;37.922;2023-05-07T03:43:44;14.91;64.95
75164;HTU21D;63746;45.402;37.922;2023-05-07T03:46:11;14.88;65.05
75164;HTU21D;63746;45.402;37.922;2023-05-07T03:48:37;14.87;65.07
75164;HTU21D;63746;45.402;37.922;2023-05-07T03:51:04;14.86;65.16
75164;HTU21D;63746;45.402;37.922;2023-05-07T03:53:32;14.85;65.13
75164;HTU21D;63746;45.402;37.922;2023-05-07T03:55:58;14.84;65.05
75164;HTU21D;63746;45.402;37.922;2023-05-07T03:58:24;14.80;65.08
75164;HTU21D;63746;45.402;37.922;2023-05-07T04:00:52;14.77;65.17
75164;HTU21D;63746;45.402;37.922;2023-05-07T04:03:23;14.74;65.14
75164;HTU21D;63746;45.402;37.922;2023-05-07T04:05:50;14.72;65.18
75164;HTU21D;63746;45.402;37.922;2023-05-07T04:08:16;14.69;65.19
75164;HTU21D;63746;45.402;37.922;2023-05-07T04:10:46;14.67;65.19
75164;HTU21D;63746;45.402;37.922;2023-05-07T04:13:13;14.66;65.26
75164;HTU21D;63746;45.402;37.922;2023-05-07T04:15:39;14.65;65.27
75164;HTU21D;63746;45.402;37.922;2023-05-07T04:18:09;14.65;65.33
75164;HTU21D;63746;45.402;37.922;2023-05-07T04:20:37;14.64;65.35
75164;HTU21D;63746;45.402;37.922;2023-05-07T04:23:06;14.67;65.42
75164;HTU21D;63746;45.402;37.922;2023-05-07T04:25:33;14.70;65.43
75164;HTU21D;63746;45.402;37.922;2023-05-07T04:28:07;14.70;65.34
75164;HTU21D;63746;45.402;37.922;2023-05-07T04:30:33;14.67;65.24
75164;HTU21D;63746;45.402;37.922;2023-05-07T04:32:59;14.64;65.22
75164;HTU21D;63746;45.402;37.922;2023-05-07T04:35:27;14.62;65.22
75164;HTU21D;63746;45.402;37.922;2023-05-07T04:37:54;14.58;65.29
75164;HTU21D;63746;45.402;37.922;2023-05-07T04:40:20;14.57;65.33
75164;HTU21D;63746;45.402;37.922;2023-05-07T04:42:46;14.56;65.38
75164;HTU21D;63746;45.402;37.922;2023-05-07T04:45:12;14.56;65.38
75164;HTU21D;63746;45.402;37.922;2023-05-07T04:47:40;14.56;65.33
75164;HTU21D;63746;45.402;37.922;2023-05-07T04:50:06;14.55;65.41
75164;HTU21D;63746;45.402;37.922;2023-05-07T04:52:35;14.57;65.47
75164;HTU21D;63746;45.402;37.922;2023-05-07T04:55:01;14.59;65.44
75164;HTU21D;63746;45.402;37.922;2023-05-07T04:57:32;14.59;65.40
75164;HTU21D;63746;45.402;37.922;2023-05-07T04:59:58;14.57;65.37
75164;HTU21D;63746;45.402;37.922;2023-05-07T05:02:25;14.57;65.35
75164;HTU21D;63746;45.402;37.922;2023-05-07T05:04:51;14.55;65.42
75164;HTU21D;63746;45.402;37.922;2023-05-07T05:07:17;14.53;65.43
75164;HTU21D;63746;45.402;37.922;2023-05-07T05:09:43;14.52;65.45
75164;HTU21D;63746;45.402;37.922;2023-05-07T05:12:10;14.50;65.50
75164;HTU21D;63746;45.402;37.922;2023-05-07T05:14:37;14.49;65.56
75164;HTU21D;63746;45.402;37.922;2023-05-07T05:17:04;14.48;65.55
75164;HTU21D;63746;45.402;37.922;2023-05-07T05:19:29;14.45;65.54
75164;HTU21D;63746;45.402;37.922;2023-05-07T05:21:55;14.43;65.58
75164;HTU21D;63746;45.402;37.922;2023-05-07T05:24:22;14.39;65.69
75164;HTU21D;63746;45.402;37.922;2023-05-07T05:26:48;14.36;65.65
75164;HTU21D;63746;45.402;37.922;2023-05-07T05:29:13;14.35;65.76
75164;HTU21D;63746;45.402;37.922;2023-05-07T05:31:41;14.32;65.78
75164;HTU21D;63746;45.402;37.922;2023-05-07T05:34:07;14.30;65.77
75164;HTU21D;63746;45.402;37.922;2023-05-07T05:36:34;14.27;65.75
75164;HTU21D;63746;45.402;37.922;2023-05-07T05:39:01;14.24;65.82
75164;HTU21D;63746;45.402;37.922;2023-05-07T05:41:27;14.21;65.91
75164;HTU21D;63746;45.402;37.922;2023-05-07T05:43:54;14.20;65.88
75164;HTU21D;63746;45.402;37.922;2023-05-07T05:46:20;14.17;65.87
75164;HTU21D;63746;45.402;37.922;2023-05-07T05:48:49;14.15;66.87
75164;HTU21D;63746;45.402;37.922;2023-05-07T05:51:15;14.11;66.09
75164;HTU21D;63746;45.402;37.922;2023-05-07T05:53:41;14.09;66.14
75164;HTU21D;63746;45.402;37.922;2023-05-07T05:56:08;14.07;66.13
75164;HTU21D;63746;45.402;37.922;2023-05-07T05:58:35;14.07;66.13
75164;HTU21D;63746;45.402;37.922;2023-05-07T06:01:04;14.10;66.08
75164;HTU21D;63746;45.402;37.922;2023-05-07T06:03:31;14.10;66.07
75164;HTU21D;63746;45.402;37.922;2023-05-07T06:06:01;14.10;66.07
75164;HTU21D;63746;45.402;37.922;2023-05-07T06:08:29;14.10;66.09
75164;HTU21D;63746;45.402;37.922;2023-05-07T06:10:56;14.12;66.07
75164;HTU21D;63746;45.402;37.922;2023-05-07T06:13:23;14.15;66.09
75164;HTU21D;63746;45.402;37.922;2023-05-07T06:15:50;14.18;66.00
75164;HTU21D;63746;45.402;37.922;2023-05-07T06:18:16;14.18;66.00
75164;HTU21D;63746;45.402;37.922;2023-05-07T06:20:42;14.18;65.95
75164;HTU21D;63746;45.402;37.922;2023-05-07T06:23:14;14.15;66.00
75164;HTU21D;63746;45.402;37.922;2023-05-07T06:25:40;14.14;66.01
75164;HTU21D;63746;45.402;37.922;2023-05-07T06:28:07;14.14;66.08
75164;HTU21D;63746;45.402;37.922;2023-05-07T06:30:38;14.17;66.10
75164;HTU21D;63746;45.402;37.922;2023-05-07T06:33:06;14.18;66.11
75164;HTU21D;63746;45.402;37.922;2023-05-07T06:35:32;14.18;66.13
75164;HTU21D;63746;45.402;37.922;2023-05-07T06:37:58;14.20;66.14
75164;HTU21D;63746;45.402;37.922;2023-05-07T06:40:26;14.21;66.24
75164;HTU21D;63746;45.402;37.922;2023-05-07T06:42:52;14.23;66.30
75164;HTU21D;63746;45.402;37.922;2023-05-07T06:45:28;14.25;66.30
75164;HTU21D;63746;45.402;37.922;2023-05-07T06:47:56;14.29;66.33
75164;HTU21D;63746;45.402;37.922;2023-05-07T06:50:23;14.33;66.41
75164;HTU21D;63746;45.402;37.922;2023-05-07T06:52:53;14.37;66.31
75164;HTU21D;63746;45.402;37.922;2023-05-07T06:55:19;14.40;66.36
75164;HTU21D;63746;45.402;37.922;2023-05-07T06:57:45;14.44;66.27
75164;HTU21D;63746;45.402;37.922;2023-05-07T07:00:11;14.48;66.25
75164;HTU21D;63746;45.402;37.922;2023-05-07T07:02:47;14.52;66.22
75164;HTU21D;63746;45.402;37.922;2023-05-07T07:05:15;14.53;66.17
75164;HTU21D;63746;45.402;37.922;2023-05-07T07:07:41;14.55;66.17
75164;HTU21D;63746;45.402;37.922;2023-05-07T07:10:07;14.55;66.18
75164;HTU21D;63746;45.402;37.922;2023-05-07T07:12:34;14.59;66.26
75164;HTU21D;63746;45.402;37.922;2023-05-07T07:15:00;14.64;66.21
75164;HTU21D;63746;45.402;37.922;2023-05-07T07:17:26;14.66;66.19
75164;HTU21D;63746;45.402;37.922;2023-05-07T07:19:54;14.68;66.15
75164;HTU21D;63746;45.402;37.922;2023-05-07T07:22:20;14.74;66.20
75164;HTU21D;63746;45.402;37.922;2023-05-07T07:24:46;14.78;66.30
75164;HTU21D;63746;45.402;37.922;2023-05-07T07:27:15;14.80;66.20
75164;HTU21D;63746;45.402;37.922;2023-05-07T07:29:41;14.83;66.24
75164;HTU21D;63746;45.402;37.922;2023-05-07T07:32:08;14.87;66.25
75164;HTU21D;63746;45.402;37.922;2023-05-07T07:34:34;14.92;66.23
75164;HTU21D;63746;45.402;37.922;2023-05-07T07:37:01;14.96;66.14
75164;HTU21D;63746;45.402;37.922;2023-05-07T07:41:55;15.00;66.07
75164;HTU21D;63746;45.402;37.922;2023-05-07T07:44:22;15.02;66.11
75164;HTU21D;63746;45.402;37.922;2023-05-07T07:46:52;15.09;66.17
75164;HTU21D;63746;45.402;37.922;2023-05-07T07:49:19;15.15;66.14
75164;HTU21D;63746;45.402;37.922;2023-05-07T07:51:46;15.23;66.13
75164;HTU21D;63746;45.402;37.922;2023-05-07T07:54:13;15.26;66.01
75164;HTU21D;63746;45.402;37.922;2023-05-07T07:56:39;15.32;66.00
75164;HTU21D;63746;45.402;37.922;2023-05-07T07:59:06;15.37;65.96
75164;HTU21D;63746;45.402;37.922;2023-05-07T08:01:37;15.43;65.95
75164;HTU21D;63746;45.402;37.922;2023-05-07T08:04:04;15.48;65.94
75164;HTU21D;63746;45.402;37.922;2023-05-07T08:06:34;15.53;65.87
75164;HTU21D;63746;45.402;37.922;2023-05-07T08:09:01;15.59;65.83
75164;HTU21D;63746;45.402;37.922;2023-05-07T08:11:28;15.62;65.80
75164;HTU21D;63746;45.402;37.922;2023-05-07T08:13:55;15.67;65.75
75164;HTU21D;63746;45.402;37.922;2023-05-07T08:16:21;15.71;65.82
75164;HTU21D;63746;45.402;37.922;2023-05-07T08:18:48;15.77;65.80
75164;HTU21D;63746;45.402;37.922;2023-05-07T08:21:14;15.84;65.75
75164;HTU21D;63746;45.402;37.922;2023-05-07T08:23:40;15.89;65.76
75164;HTU21D;63746;45.402;37.922;2023-05-07T08:26:08;15.95;65.71
75164;HTU21D;63746;45.402;37.922;2023-05-07T08:28:35;16.02;65.69
75164;HTU21D;63746;45.402;37.922;2023-05-07T08:31:01;16.07;65.68
75164;HTU21D;63746;45.402;37.922;2023-05-07T08:33:31;16.16;65.64
75164;HTU21D;63746;45.402;37.922;2023-05-07T08:35:57;16.24;65.59
75164;HTU21D;63746;45.402;37.922;2023-05-07T08:38:24;16.28;65.51
75164;HTU21D;63746;45.402;37.922;2023-05-07T08:40:50;16.31;65.46
75164;HTU21D;63746;45.402;37.922;2023-05-07T08:43:19;16.34;65.42
75164;HTU21D;63746;45.402;37.922;2023-05-07T08:45:45;16.40;65.42
75164;HTU21D;63746;45.402;37.922;2023-05-07T08:48:17;16.44;65.43
75164;HTU21D;63746;45.402;37.922;2023-05-07T08:50:49;16.49;65.40
75164;HTU21D;63746;45.402;37.922;2023-05-07T08:53:16;16.56;65.40
75164;HTU21D;63746;45.402;37.922;2023-05-07T08:55:42;16.60;65.34
75164;HTU21D;63746;45.402;37.922;2023-05-07T08:58:08;16.65;65.33
75164;HTU21D;63746;45.402;37.922;2023-05-07T09:00:39;16.72;65.39
75164;HTU21D;63746;45.402;37.922;2023-05-07T09:03:06;16.77;65.30
75164;HTU21D;63746;45.402;37.922;2023-05-07T09:05:35;16.81;65.27
75164;HTU21D;63746;45.402;37.922;2023-05-07T09:08:24;16.85;65.45
75164;HTU21D;63746;45.402;37.922;2023-05-07T09:10:50;16.86;65.16
75164;HTU21D;63746;45.402;37.922;2023-05-07T09:13:17;16.89;65.17
75164;HTU21D;63746;45.402;37.922;2023-05-07T09:15:45;16.89;65.15
75164;HTU21D;63746;45.402;37.922;2023-05-07T09:18:12;16.92;65.14
75164;HTU21D;63746;45.402;37.922;2023-05-07T09:20:39;16.94;65.18
75164;HTU21D;63746;45.402;37.922;2023-05-07T09:23:07;16.98;65.17
75164;HTU21D;63746;45.402;37.922;2023-05-07T09:25:35;17.02;65.20
75164;HTU21D;63746;45.402;37.922;2023-05-07T09:28:06;17.05;65.21
75164;HTU21D;63746;45.402;37.922;2023-05-07T09:30:33;17.10;65.16
75164;HTU21D;63746;45.402;37.922;2023-05-07T09:33:03;17.13;65.13
75164;HTU21D;63746;45.402;37.922;2023-05-07T09:35:30;17.16;65.13
75164;HTU21D;63746;45.402;37.922;2023-05-07T09:38:02;17.20;65.14
75164;HTU21D;63746;45.402;37.922;2023-05-07T09:40:30;17.25;65.13
75164;HTU21D;63746;45.402;37.922;2023-05-07T09:43:11;17.28;65.21
75164;HTU21D;63746;45.402;37.922;2023-05-07T09:45:43;17.32;65.04
75164;HTU21D;63746;45.402;37.922;2023-05-07T09:48:12;17.33;65.06
75164;HTU21D;63746;45.402;37.922;2023-05-07T09:50:49;17.36;65.08
75164;HTU21D;63746;45.402;37.922;2023-05-07T09:53:21;17.40;65.02
75164;HTU21D;63746;45.402;37.922;2023-05-07T09:55:48;17.41;64.97
75164;HTU21D;63746;45.402;37.922;2023-05-07T09:58:14;17.41;64.95
75164;HTU21D;63746;45.402;37.922;2023-05-07T10:00:43;17.44;65.00
75164;HTU21D;63746;45.402;37.922;2023-05-07T10:03:13;17.49;64.99
75164;HTU21D;63746;45.402;37.922;2023-05-07T10:05:49;17.51;64.96
75164;HTU21D;63746;45.402;37.922;2023-05-07T10:08:17;17.52;64.94
75164;HTU21D;63746;45.402;37.922;2023-05-07T10:10:47;17.55;64.89
75164;HTU21D;63746;45.402;37.922;2023-05-07T10:13:19;17.55;64.85
75164;HTU21D;63746;45.402;37.922;2023-05-07T10:15:49;17.55;64.83
75164;HTU21D;63746;45.402;37.922;2023-05-07T10:18:18;17.54;64.85
75164;HTU21D;63746;45.402;37.922;2023-05-07T10:20:50;17.54;64.83
75164;HTU21D;63746;45.402;37.922;2023-05-07T10:23:23;17.55;64.85
75164;HTU21D;63746;45.402;37.922;2023-05-07T10:25:49;17.55;64.89
75164;HTU21D;63746;45.402;37.922;2023-05-07T10:28:23;17.56;64.86
75164;HTU21D;63746;45.402;37.922;2023-05-07T10:33:41;17.56;64.87
75164;HTU21D;63746;45.402;37.922;2023-05-07T10:36:09;17.56;64.89
75164;HTU21D;63746;45.402;37.922;2023-05-07T10:38:36;17.59;64.85
75164;HTU21D;63746;45.402;37.922;2023-05-07T10:41:02;17.59;64.88
75164;HTU21D;63746;45.402;37.922;2023-05-07T10:43:43;17.59;65.03
75164;HTU21D;63746;45.402;37.922;2023-05-07T10:46:18;17.62;64.96
75164;HTU21D;63746;45.402;37.922;2023-05-07T10:52:12;17.64;65.08
75164;HTU21D;63746;45.402;37.922;2023-05-07T10:57:42;17.70;64.95
75164;HTU21D;63746;45.402;37.922;2023-05-07T11:05:33;17.76;64.91
75164;HTU21D;63746;45.402;37.922;2023-05-07T11:08:22;17.79;64.91
75164;HTU21D;63746;45.402;37.922;2023-05-07T11:10:57;17.83;64.95
75164;HTU21D;63746;45.402;37.922;2023-05-07T11:13:45;17.88;64.93
75164;HTU21D;63746;45.402;37.922;2023-05-07T11:16:44;17.95;64.92
75164;HTU21D;63746;45.402;37.922;2023-05-07T11:19:53;17.99;65.19
75164;HTU21D;63746;45.402;37.922;2023-05-07T11:22:37;18.04;64.87
75164;HTU21D;63746;45.402;37.922;2023-05-07T11:25:25;18.08;64.89
75164;HTU21D;63746;45.402;37.922;2023-05-07T11:28:07;18.11;64.91
75164;HTU21D;63746;45.402;37.922;2023-05-07T11:30:42;18.17;64.83
75164;HTU21D;63746;45.402;37.922;2023-05-07T11:33:11;18.20;64.76
75164;HTU21D;63746;45.402;37.922;2023-05-07T11:35:39;18.21;64.72
75164;HTU21D;63746;45.402;37.922;2023-05-07T11:38:08;18.22;64.66
75164;HTU21D;63746;45.402;37.922;2023-05-07T11:40:58;18.22;64.70
75164;HTU21D;63746;45.402;37.922;2023-05-07T11:43:28;18.22;64.62
75164;HTU21D;63746;45.402;37.922;2023-05-07T11:45:54;18.22;64.63
75164;HTU21D;63746;45.402;37.922;2023-05-07T11:48:21;18.22;64.59
75164;HTU21D;63746;45.402;37.922;2023-05-07T11:51:02;18.21;64.64
75164;HTU21D;63746;45.402;37.922;2023-05-07T11:53:39;18.21;64.67
75164;HTU21D;63746;45.402;37.922;2023-05-07T11:56:09;18.20;64.65
75164;HTU21D;63746;45.402;37.922;2023-05-07T11:58:36;18.19;64.64
75164;HTU21D;63746;45.402;37.922;2023-05-07T12:01:02;18.19;64.65
75164;HTU21D;63746;45.402;37.922;2023-05-07T12:03:28;18.19;64.62
75164;HTU21D;63746;45.402;37.922;2023-05-07T12:05:55;18.15;64.62
75164;HTU21D;63746;45.402;37.922;2023-05-07T12:08:21;18.12;64.64
75164;HTU21D;63746;45.402;37.922;2023-05-07T12:10:49;18.10;64.68
75164;HTU21D;63746;45.402;37.922;2023-05-07T12:13:20;18.10;64.70
75164;HTU21D;63746;45.402;37.922;2023-05-07T12:15:46;18.08;64.71
75164;HTU21D;63746;45.402;37.922;2023-05-07T12:18:14;18.05;65.00
75164;HTU21D;63746;45.402;37.922;2023-05-07T12:20:40;18.02;64.72
75164;HTU21D;63746;45.402;37.922;2023-05-07T12:23:06;17.99;64.76
75164;HTU21D;63746;45.402;37.922;2023-05-07T12:25:39;17.97;64.81
75164;HTU21D;63746;45.402;37.922;2023-05-07T12:28:07;17.95;64.82
75164;HTU21D;63746;45.402;37.922;2023-05-07T12:30:37;17.94;64.79
75164;HTU21D;63746;45.402;37.922;2023-05-07T12:33:03;17.90;64.78
75164;HTU21D;63746;45.402;37.922;2023-05-07T12:35:30;17.88;64.80
75164;HTU21D;63746;45.402;37.922;2023-05-07T12:37:58;17.87;64.85
75164;HTU21D;63746;45.402;37.922;2023-05-07T12:40:36;17.85;64.93
75164;HTU21D;63746;45.402;37.922;2023-05-07T12:43:02;17.87;64.86
75164;HTU21D;63746;45.402;37.922;2023-05-07T12:45:41;17.84;64.94
75164;HTU21D;63746;45.402;37.922;2023-05-07T12:48:09;17.82;64.85
75164;HTU21D;63746;45.402;37.922;2023-05-07T12:50:35;17.81;64.85
75164;HTU21D;63746;45.402;37.922;2023-05-07T12:53:04;17.79;64.86
75164;HTU21D;63746;45.402;37.922;2023-05-07T12:55:50;17.79;65.06
75164;HTU21D;63746;45.402;37.922;2023-05-07T12:58:20;17.79;64.90
75164;HTU21D;63746;45.402;37.922;2023-05-07T13:00:50;17.78;64.91
75164;HTU21D;63746;45.402;37.922;2023-05-07T13:03:28;17.76;64.95
75164;HTU21D;63746;45.402;37.922;2023-05-07T13:06:00;17.75;64.87
75164;HTU21D;63746;45.402;37.922;2023-05-07T13:08:31;17.69;64.84
75164;HTU21D;63746;45.402;37.922;2023-05-07T13:10:59;17.68;64.83
75164;HTU21D;63746;45.402;37.922;2023-05-07T13:13:32;17.64;64.84
75164;HTU21D;63746;45.402;37.922;2023-05-07T13:15:59;17.60;64.86
75164;HTU21D;63746;45.402;37.922;2023-05-07T13:18:26;17.55;64.88
75164;HTU21D;63746;45.402;37.922;2023-05-07T13:20:53;17.52;64.91
75164;HTU21D;63746;45.402;37.922;2023-05-07T13:23:19;17.51;64.95
75164;HTU21D;63746;45.402;37.922;2023-05-07T13:25:45;17.48;64.98
75164;HTU21D;63746;45.402;37.922;2023-05-07T13:28:11;17.47;64.99
75164;HTU21D;63746;45.402;37.922;2023-05-07T13:30:38;17.45;65.04
75164;HTU21D;63746;45.402;37.922;2023-05-07T13:33:07;17.43;65.08
75164;HTU21D;63746;45.402;37.922;2023-05-07T13:35:34;17.41;65.08
75164;HTU21D;63746;45.402;37.922;2023-05-07T13:38:00;17.41;65.11
75164;HTU21D;63746;45.402;37.922;2023-05-07T13:40:26;17.41;65.11
75164;HTU21D;63746;45.402;37.922;2023-05-07T13:42:53;17.43;65.14
75164;HTU21D;63746;45.402;37.922;2023-05-07T13:45:20;17.43;65.09
75164;HTU21D;63746;45.402;37.922;2023-05-07T13:47:46;17.41;65.10
75164;HTU21D;63746;45.402;37.922;2023-05-07T13:50:13;17.43;65.10
75164;HTU21D;63746;45.402;37.922;2023-05-07T13:52:43;17.40;65.06
75164;HTU21D;63746;45.402;37.922;2023-05-07T13:55:12;17.39;65.10
75164;HTU21D;63746;45.402;37.922;2023-05-07T13:57:38;17.38;65.06
75164;HTU21D;63746;45.402;37.922;2023-05-07T14:00:06;17.35;65.06
75164;HTU21D;63746;45.402;37.922;2023-05-07T14:02:40;17.34;65.39
75164;HTU21D;63746;45.402;37.922;2023-05-07T14:05:07;17.29;65.14
75164;HTU21D;63746;45.402;37.922;2023-05-07T14:07:33;17.25;65.20
75164;HTU21D;63746;45.402;37.922;2023-05-07T14:09:59;17.24;65.24
75164;HTU21D;63746;45.402;37.922;2023-05-07T14:12:25;17.22;65.24
75164;HTU21D;63746;45.402;37.922;2023-05-07T14:14:51;17.21;65.21
75164;HTU21D;63746;45.402;37.922;2023-05-07T14:17:17;17.20;65.23
75164;HTU21D;63746;45.402;37.922;2023-05-07T14:19:44;17.21;65.24
75164;HTU21D;63746;45.402;37.922;2023-05-07T14:22:10;17.19;65.27
75164;HTU21D;63746;45.402;37.922;2023-05-07T14:24:36;17.18;65.29
75164;HTU21D;63746;45.402;37.922;2023-05-07T14:27:02;17.20;65.28
75164;HTU21D;63746;45.402;37.922;2023-05-07T14:29:28;17.18;65.21
75164;HTU21D;63746;45.402;37.922;2023-05-07T14:31:54;17.16;65.21
75164;HTU21D;63746;45.402;37.922;2023-05-07T14:34:20;17.15;65.22
75164;HTU21D;63746;45.402;37.922;2023-05-07T14:36:46;17.10;65.21
75164;HTU21D;63746;45.402;37.922;2023-05-07T14:39:12;17.09;65.24
75164;HTU21D;63746;45.402;37.922;2023-05-07T14:41:38;17.09;65.26
75164;HTU21D;63746;45.402;37.922;2023-05-07T14:44:04;17.09;65.27
75164;HTU21D;63746;45.402;37.922;2023-05-07T14:46:30;17.07;65.26
75164;HTU21D;63746;45.402;37.922;2023-05-07T14:48:59;17.07;65.31
75164;HTU21D;63746;45.402;37.922;2023-05-07T14:51:25;17.06;65.24
75164;HTU21D;63746;45.402;37.922;2023-05-07T14:53:53;17.06;65.24
75164;HTU21D;63746;45.402;37.922;2023-05-07T14:56:20;17.01;65.23
75164;HTU21D;63746;45.402;37.922;2023-05-07T14:58:47;17.00;65.24
75164;HTU21D;63746;45.402;37.922;2023-05-07T15:01:14;16.98;65.28
75164;HTU21D;63746;45.402;37.922;2023-05-07T15:03:40;16.96;65.29
75164;HTU21D;63746;45.402;37.922;2023-05-07T15:06:06;16.92;65.29
75164;HTU21D;63746;45.402;37.922;2023-05-07T15:08:32;16.92;65.30
75164;HTU21D;63746;45.402;37.922;2023-05-07T15:10:58;16.90;65.30
75164;HTU21D;63746;45.402;37.922;2023-05-07T15:13:24;16.90;65.33
75164;HTU21D;63746;45.402;37.922;2023-05-07T15:15:50;16.88;65.37
75164;HTU21D;63746;45.402;37.922;2023-05-07T15:18:16;16.85;65.30
75164;HTU21D;63746;45.402;37.922;2023-05-07T15:20:42;16.81;65.31
75164;HTU21D;63746;45.402;37.922;2023-05-07T15:23:09;16.77;65.31
75164;HTU21D;63746;45.402;37.922;2023-05-07T15:25:42;16.73;65.39